This is the latest recevied weather packets stored in our database for station/object KF7IOR. If no packets are shown the sender has not sent any weather packets the latest 10 day(s).
| Time | Temp. | Humidity | Pressure | Rain* | Wind** | Luminosity | Snow |
|---|---|---|---|---|---|---|---|
| 1777754134 | 17.78° C | 63% | 1013.9 hPa | 0 mm | - | 907 W/m² | - |
| 1777753235 | 17.78° C | 66% | 1014.1 hPa | 0 mm | - | 826 W/m² | - |
| 1777751737 | 17.22° C | 67% | 1014.2 hPa | 0 mm | - | 327 W/m² | - |
| 1777751141 | 16.11° C | 67% | 1014.3 hPa | 0 mm | - | 429 W/m² | - |
| 1777746335 | 13.89° C | 75% | 1015.3 hPa | 0 mm | - | 420 W/m² | - |
| 1777742734 | 12.78° C | 76% | 1015.9 hPa | 0 mm | - | 200 W/m² | - |
| 1777742140 | 12.78° C | 77% | 1015.8 hPa | 0 mm | - | 190 W/m² | - |
| 1777741241 | 12.78° C | 79% | 1015.7 hPa | 0 mm | - | 183 W/m² | - |
| 1777740634 | 12.78° C | 78% | 1015.8 hPa | 0 mm | - | 137 W/m² | - |
| 1777739466 | 12.22° C | 78% | 1015.8 hPa | 0 mm | - | 141 W/m² | - |
| 1777738543 | 11.67° C | 79% | 1015.8 hPa | 0 mm | - | 174 W/m² | - |
| 1777736435 | 11.67° C | 80% | 1016 hPa | 0 mm | - | 84 W/m² | - |
| 1777734334 | 11.67° C | 80% | 1015.9 hPa | 0 mm | - | 65 W/m² | - |
| 1777733434 | 11.11° C | 80% | 1015.8 hPa | 0 mm | - | 54 W/m² | - |
| 1777732834 | 11.11° C | 80% | 1015.9 hPa | 0 mm | - | 44 W/m² | - |
| 1777731356 | 11.11° C | 80% | 1016 hPa | 0 mm | - | 26 W/m² | - |
| 1777731035 | 11.11° C | 80% | 1015.9 hPa | 0 mm | - | 21 W/m² | - |
| 1777730135 | 11.11° C | 80% | 1015.7 hPa | 0 mm | - | 16 W/m² | - |
| 1777728645 | 11.11° C | 79% | 1015.8 hPa | 0 mm | - | 7 W/m² | - |
| 1777727435 | 11.11° C | 80% | 1015.7 hPa | 0 mm | - | 0 W/m² | - |
| 1777725638 | 10.56° C | 80% | 1015.5 hPa | 0 mm | - | 0 W/m² | - |
| 1777722347 | 10.56° C | 81% | 1015.5 hPa | 0 mm | - | 0 W/m² | - |
| 1777719935 | 11.11° C | 81% | 1015.5 hPa | 0 mm | - | 0 W/m² | - |
| 1777719635 | 11.11° C | 82% | 1015.6 hPa | 0 mm | - | 0 W/m² | - |
| 1777719335 | 10.56° C | 82% | 1015.7 hPa | 0 mm | - | 0 W/m² | - |
* Rain latest hour (hover to see other rain measurements)
** Current wind speed in m/s (hover to see current wind gust speed)